sensor_id;sensor_type;location;lat;lon;timestamp;pressure;altitude;pressure_sealevel;temperature;humidity
61434;BME280;47300;46.192;9.000;2023-01-26T00:01:54;98424.38;;;2.21;86.75
61434;BME280;47300;46.192;9.000;2023-01-26T00:04:20;98420.16;;;2.24;86.18
61434;BME280;47300;46.192;9.000;2023-01-26T00:06:45;98417.59;;;2.26;86.11
61434;BME280;47300;46.192;9.000;2023-01-26T00:09:13;98414.38;;;2.33;85.91
61434;BME280;47300;46.192;9.000;2023-01-26T00:11:39;98410.88;;;2.31;85.48
61434;BME280;47300;46.192;9.000;2023-01-26T00:14:04;98408.00;;;2.22;86.55
61434;BME280;47300;46.192;9.000;2023-01-26T00:16:30;98410.28;;;2.11;86.29
61434;BME280;47300;46.192;9.000;2023-01-26T00:18:55;98410.41;;;2.15;86.57
61434;BME280;47300;46.192;9.000;2023-01-26T00:21:21;98407.56;;;2.06;87.40
61434;BME280;47300;46.192;9.000;2023-01-26T00:23:46;98411.72;;;1.72;87.65
61434;BME280;47300;46.192;9.000;2023-01-26T00:26:16;98410.38;;;1.85;88.61
61434;BME280;47300;46.192;9.000;2023-01-26T00:28:41;98404.72;;;1.98;88.94
61434;BME280;47300;46.192;9.000;2023-01-26T00:31:09;98402.53;;;2.11;88.34
61434;BME280;47300;46.192;9.000;2023-01-26T00:33:34;98396.94;;;1.97;88.23
61434;BME280;47300;46.192;9.000;2023-01-26T00:36:00;98405.06;;;2.09;88.05
61434;BME280;47300;46.192;9.000;2023-01-26T00:38:25;98398.13;;;2.08;88.03
61434;BME280;47300;46.192;9.000;2023-01-26T00:40:50;98394.78;;;2.12;87.34
61434;BME280;47300;46.192;9.000;2023-01-26T00:43:15;98394.94;;;2.17;87.63
61434;BME280;47300;46.192;9.000;2023-01-26T00:45:41;98394.25;;;2.24;87.30
61434;BME280;47300;46.192;9.000;2023-01-26T00:48:06;98390.84;;;2.25;87.74
61434;BME280;47300;46.192;9.000;2023-01-26T00:50:31;98385.22;;;2.42;87.08
61434;BME280;47300;46.192;9.000;2023-01-26T00:52:57;98387.03;;;2.44;87.29
61434;BME280;47300;46.192;9.000;2023-01-26T00:55:22;98379.81;;;2.33;87.46
61434;BME280;47300;46.192;9.000;2023-01-26T00:57:48;98387.84;;;2.11;88.58
61434;BME280;47300;46.192;9.000;2023-01-26T01:00:13;98392.09;;;2.09;89.53
61434;BME280;47300;46.192;9.000;2023-01-26T01:02:41;98388.09;;;2.21;89.01
61434;BME280;47300;46.192;9.000;2023-01-26T01:05:06;98391.25;;;2.09;89.72
61434;BME280;47300;46.192;9.000;2023-01-26T01:07:31;98390.97;;;1.70;90.98
61434;BME280;47300;46.192;9.000;2023-01-26T01:09:56;98397.13;;;1.74;90.20
61434;BME280;47300;46.192;9.000;2023-01-26T01:12:24;98398.69;;;1.69;91.33
61434;BME280;47300;46.192;9.000;2023-01-26T01:14:49;98401.44;;;1.73;91.43
61434;BME280;47300;46.192;9.000;2023-01-26T01:17:14;98399.94;;;1.82;90.81
61434;BME280;47300;46.192;9.000;2023-01-26T01:19:40;98397.13;;;1.74;91.45
61434;BME280;47300;46.192;9.000;2023-01-26T01:22:05;98403.31;;;1.79;88.69
61434;BME280;47300;46.192;9.000;2023-01-26T01:24:31;98394.88;;;1.85;88.13
61434;BME280;47300;46.192;9.000;2023-01-26T01:26:58;98392.41;;;1.90;88.47
61434;BME280;47300;46.192;9.000;2023-01-26T01:29:23;98394.63;;;2.06;88.29
61434;BME280;47300;46.192;9.000;2023-01-26T01:31:48;98390.41;;;2.10;88.09
61434;BME280;47300;46.192;9.000;2023-01-26T01:34:14;98385.50;;;2.19;87.40
61434;BME280;47300;46.192;9.000;2023-01-26T01:36:39;98390.78;;;1.93;89.48
61434;BME280;47300;46.192;9.000;2023-01-26T01:39:04;98389.84;;;1.90;90.41
61434;BME280;47300;46.192;9.000;2023-01-26T01:41:29;98380.84;;;2.07;89.53
61434;BME280;47300;46.192;9.000;2023-01-26T01:44:17;98379.38;;;2.17;88.19
61434;BME280;47300;46.192;9.000;2023-01-26T01:46:44;98371.19;;;2.34;87.38
61434;BME280;47300;46.192;9.000;2023-01-26T01:51:50;98375.75;;;1.81;90.55
61434;BME280;47300;46.192;9.000;2023-01-26T01:54:19;98374.19;;;1.86;89.53
61434;BME280;47300;46.192;9.000;2023-01-26T01:56:47;98376.97;;;1.93;91.01
61434;BME280;47300;46.192;9.000;2023-01-26T01:59:14;98373.91;;;1.77;93.95
61434;BME280;47300;46.192;9.000;2023-01-26T02:01:39;98368.16;;;1.86;93.52
61434;BME280;47300;46.192;9.000;2023-01-26T02:04:05;98371.81;;;1.93;93.40
61434;BME280;47300;46.192;9.000;2023-01-26T02:06:33;98373.81;;;2.03;92.42
61434;BME280;47300;46.192;9.000;2023-01-26T02:09:00;98378.59;;;1.89;93.90
61434;BME280;47300;46.192;9.000;2023-01-26T02:11:30;98370.25;;;1.99;92.87
61434;BME280;47300;46.192;9.000;2023-01-26T02:13:57;98368.47;;;1.97;92.84
61434;BME280;47300;46.192;9.000;2023-01-26T02:16:24;98368.50;;;1.98;92.39
61434;BME280;47300;46.192;9.000;2023-01-26T02:18:49;98361.81;;;2.07;92.17
61434;BME280;47300;46.192;9.000;2023-01-26T02:21:16;98356.28;;;1.94;91.58
61434;BME280;47300;46.192;9.000;2023-01-26T02:26:09;98345.72;;;1.86;92.12
61434;BME280;47300;46.192;9.000;2023-01-26T02:28:35;98347.53;;;1.89;92.02
61434;BME280;47300;46.192;9.000;2023-01-26T02:31:00;98344.94;;;1.89;92.72
61434;BME280;47300;46.192;9.000;2023-01-26T02:33:27;98339.94;;;1.95;92.42
61434;BME280;47300;46.192;9.000;2023-01-26T02:35:53;98340.28;;;1.77;91.86
61434;BME280;47300;46.192;9.000;2023-01-26T02:38:19;98338.34;;;1.70;92.29
61434;BME280;47300;46.192;9.000;2023-01-26T02:40:47;98336.69;;;1.72;92.95
61434;BME280;47300;46.192;9.000;2023-01-26T02:43:15;98341.19;;;1.79;92.59
61434;BME280;47300;46.192;9.000;2023-01-26T02:45:40;98333.03;;;1.65;93.32
61434;BME280;47300;46.192;9.000;2023-01-26T02:48:05;98332.84;;;1.59;93.60
61434;BME280;47300;46.192;9.000;2023-01-26T02:50:32;98325.66;;;1.49;93.68
61434;BME280;47300;46.192;9.000;2023-01-26T02:52:57;98329.25;;;1.54;93.23
61434;BME280;47300;46.192;9.000;2023-01-26T02:55:23;98329.59;;;1.66;92.29
61434;BME280;47300;46.192;9.000;2023-01-26T02:57:55;98328.75;;;1.66;92.50
61434;BME280;47300;46.192;9.000;2023-01-26T03:00:22;98315.13;;;1.73;92.00
61434;BME280;47300;46.192;9.000;2023-01-26T03:02:48;98310.34;;;1.56;92.23
61434;BME280;47300;46.192;9.000;2023-01-26T03:05:14;98318.72;;;1.77;92.07
61434;BME280;47300;46.192;9.000;2023-01-26T03:07:40;98313.53;;;1.77;91.52
61434;BME280;47300;46.192;9.000;2023-01-26T03:10:05;98321.47;;;1.83;90.20
61434;BME280;47300;46.192;9.000;2023-01-26T03:12:31;98310.97;;;1.78;89.66
61434;BME280;47300;46.192;9.000;2023-01-26T03:14:56;98311.63;;;1.71;89.42
61434;BME280;47300;46.192;9.000;2023-01-26T03:17:40;98308.13;;;1.69;89.58
61434;BME280;47300;46.192;9.000;2023-01-26T03:20:06;98311.31;;;1.31;90.93
61434;BME280;47300;46.192;9.000;2023-01-26T03:22:49;98308.53;;;1.54;91.58
61434;BME280;47300;46.192;9.000;2023-01-26T03:25:34;98297.41;;;1.56;91.93
61434;BME280;47300;46.192;9.000;2023-01-26T03:28:18;98291.19;;;1.50;92.17
61434;BME280;47300;46.192;9.000;2023-01-26T03:30:50;98297.00;;;1.42;93.41
61434;BME280;47300;46.192;9.000;2023-01-26T03:33:16;98293.75;;;1.50;92.81
61434;BME280;47300;46.192;9.000;2023-01-26T03:35:42;98289.94;;;1.67;92.30
61434;BME280;47300;46.192;9.000;2023-01-26T03:38:07;98284.16;;;1.76;90.63
61434;BME280;47300;46.192;9.000;2023-01-26T03:40:32;98286.16;;;1.86;90.50
61434;BME280;47300;46.192;9.000;2023-01-26T03:43:16;98280.75;;;1.77;90.27
61434;BME280;47300;46.192;9.000;2023-01-26T03:46:03;98286.97;;;1.84;90.12
61434;BME280;47300;46.192;9.000;2023-01-26T03:48:47;98288.44;;;1.74;89.53
61434;BME280;47300;46.192;9.000;2023-01-26T03:51:31;98279.81;;;1.75;90.57
61434;BME280;47300;46.192;9.000;2023-01-26T03:54:15;98278.53;;;1.90;90.50
61434;BME280;47300;46.192;9.000;2023-01-26T03:56:59;98276.53;;;1.81;89.35
61434;BME280;47300;46.192;9.000;2023-01-26T03:59:24;98277.09;;;1.70;90.64
61434;BME280;47300;46.192;9.000;2023-01-26T04:02:05;98269.06;;;1.59;90.16
61434;BME280;47300;46.192;9.000;2023-01-26T04:04:50;98263.72;;;1.55;91.31
61434;BME280;47300;46.192;9.000;2023-01-26T04:07:34;98264.88;;;1.65;90.67
61434;BME280;47300;46.192;9.000;2023-01-26T04:10:18;98266.09;;;1.47;90.67
61434;BME280;47300;46.192;9.000;2023-01-26T04:12:44;98260.28;;;1.54;91.09
61434;BME280;47300;46.192;9.000;2023-01-26T04:15:09;98259.66;;;1.63;89.50
61434;BME280;47300;46.192;9.000;2023-01-26T04:17:53;98251.34;;;1.73;89.29
61434;BME280;47300;46.192;9.000;2023-01-26T04:20:37;98253.13;;;1.76;88.79
61434;BME280;47300;46.192;9.000;2023-01-26T04:23:21;98247.72;;;1.68;90.11
61434;BME280;47300;46.192;9.000;2023-01-26T04:25:46;98247.69;;;1.67;89.44
61434;BME280;47300;46.192;9.000;2023-01-26T04:28:12;98238.19;;;1.67;88.89
61434;BME280;47300;46.192;9.000;2023-01-26T04:30:37;98229.19;;;1.85;88.42
61434;BME280;47300;46.192;9.000;2023-01-26T04:33:03;98228.31;;;1.84;88.15
61434;BME280;47300;46.192;9.000;2023-01-26T04:35:28;98216.41;;;1.90;87.41
61434;BME280;47300;46.192;9.000;2023-01-26T04:37:53;98215.50;;;1.89;88.37
61434;BME280;47300;46.192;9.000;2023-01-26T04:40:18;98217.72;;;1.75;89.27
61434;BME280;47300;46.192;9.000;2023-01-26T04:42:44;98215.44;;;1.86;88.96
61434;BME280;47300;46.192;9.000;2023-01-26T04:45:10;98214.91;;;1.67;89.00
61434;BME280;47300;46.192;9.000;2023-01-26T04:47:35;98215.28;;;1.81;88.88
61434;BME280;47300;46.192;9.000;2023-01-26T04:50:00;98213.06;;;1.94;88.32
61434;BME280;47300;46.192;9.000;2023-01-26T04:52:26;98210.38;;;1.91;88.12
61434;BME280;47300;46.192;9.000;2023-01-26T04:54:51;98209.63;;;1.95;87.29
61434;BME280;47300;46.192;9.000;2023-01-26T04:57:16;98204.47;;;1.96;87.96
61434;BME280;47300;46.192;9.000;2023-01-26T04:59:44;98211.69;;;2.08;86.73
61434;BME280;47300;46.192;9.000;2023-01-26T05:02:09;98205.94;;;2.20;86.14
61434;BME280;47300;46.192;9.000;2023-01-26T05:04:35;98194.13;;;2.30;86.02
61434;BME280;47300;46.192;9.000;2023-01-26T05:07:00;98190.84;;;2.39;85.36
61434;BME280;47300;46.192;9.000;2023-01-26T05:09:25;98197.13;;;2.47;85.52
61434;BME280;47300;46.192;9.000;2023-01-26T05:11:51;98198.34;;;2.26;82.57
61434;BME280;47300;46.192;9.000;2023-01-26T05:14:16;98196.88;;;2.38;80.98
61434;BME280;47300;46.192;9.000;2023-01-26T05:16:41;98193.88;;;2.21;80.74
61434;BME280;47300;46.192;9.000;2023-01-26T05:19:06;98190.50;;;2.25;80.92
61434;BME280;47300;46.192;9.000;2023-01-26T05:21:31;98187.25;;;2.32;83.53
61434;BME280;47300;46.192;9.000;2023-01-26T05:23:56;98183.06;;;2.02;82.76
61434;BME280;47300;46.192;9.000;2023-01-26T05:26:22;98180.56;;;2.07;83.15
61434;BME280;47300;46.192;9.000;2023-01-26T05:28:47;98184.31;;;2.18;83.49
61434;BME280;47300;46.192;9.000;2023-01-26T05:31:12;98184.97;;;2.09;84.37
61434;BME280;47300;46.192;9.000;2023-01-26T05:33:37;98174.66;;;2.11;81.24
61434;BME280;47300;46.192;9.000;2023-01-26T05:36:04;98176.63;;;2.21;83.79
61434;BME280;47300;46.192;9.000;2023-01-26T05:38:29;98174.25;;;2.29;81.17
61434;BME280;47300;46.192;9.000;2023-01-26T05:40:54;98183.00;;;2.34;79.88
61434;BME280;47300;46.192;9.000;2023-01-26T05:43:20;98180.50;;;2.39;79.86
61434;BME280;47300;46.192;9.000;2023-01-26T05:45:45;98176.28;;;2.44;80.95
61434;BME280;47300;46.192;9.000;2023-01-26T05:48:10;98177.38;;;2.52;82.00
61434;BME280;47300;46.192;9.000;2023-01-26T05:50:35;98176.22;;;2.41;81.27
61434;BME280;47300;46.192;9.000;2023-01-26T05:53:01;98179.56;;;2.37;81.19
61434;BME280;47300;46.192;9.000;2023-01-26T05:55:27;98180.41;;;2.36;80.57
61434;BME280;47300;46.192;9.000;2023-01-26T05:57:52;98177.56;;;2.25;81.17
61434;BME280;47300;46.192;9.000;2023-01-26T06:00:17;98181.75;;;2.20;82.55
61434;BME280;47300;46.192;9.000;2023-01-26T06:02:43;98177.66;;;2.28;82.81
61434;BME280;47300;46.192;9.000;2023-01-26T06:05:08;98180.34;;;2.33;83.69
61434;BME280;47300;46.192;9.000;2023-01-26T06:07:33;98185.03;;;2.12;79.79
61434;BME280;47300;46.192;9.000;2023-01-26T06:09:59;98180.91;;;2.21;79.79
61434;BME280;47300;46.192;9.000;2023-01-26T06:12:24;98178.44;;;2.25;79.85
61434;BME280;47300;46.192;9.000;2023-01-26T06:14:49;98176.06;;;2.33;79.35
61434;BME280;47300;46.192;9.000;2023-01-26T06:17:15;98180.41;;;2.36;78.99
61434;BME280;47300;46.192;9.000;2023-01-26T06:19:41;98185.09;;;2.49;78.83
61434;BME280;47300;46.192;9.000;2023-01-26T06:22:10;98175.28;;;2.37;79.30
61434;BME280;47300;46.192;9.000;2023-01-26T06:24:35;98179.69;;;2.41;78.93
61434;BME280;47300;46.192;9.000;2023-01-26T06:27:00;98177.06;;;2.40;78.73
61434;BME280;47300;46.192;9.000;2023-01-26T06:29:26;98170.75;;;2.28;79.50
61434;BME280;47300;46.192;9.000;2023-01-26T06:31:51;98172.56;;;1.97;81.18
61434;BME280;47300;46.192;9.000;2023-01-26T06:34:17;98168.44;;;2.04;81.27
61434;BME280;47300;46.192;9.000;2023-01-26T06:36:42;98171.41;;;2.20;81.61
61434;BME280;47300;46.192;9.000;2023-01-26T06:39:08;98168.94;;;2.26;81.26
61434;BME280;47300;46.192;9.000;2023-01-26T06:41:34;98174.19;;;2.27;80.99
61434;BME280;47300;46.192;9.000;2023-01-26T06:44:00;98171.88;;;2.38;80.89
61434;BME280;47300;46.192;9.000;2023-01-26T06:46:25;98164.59;;;2.23;82.44
61434;BME280;47300;46.192;9.000;2023-01-26T06:48:50;98173.22;;;2.24;81.97
61434;BME280;47300;46.192;9.000;2023-01-26T06:53:54;98167.66;;;2.08;82.50
61434;BME280;47300;46.192;9.000;2023-01-26T06:56:20;98162.91;;;2.25;81.54
61434;BME280;47300;46.192;9.000;2023-01-26T06:58:45;98168.22;;;1.96;82.58
61434;BME280;47300;46.192;9.000;2023-01-26T07:01:15;98165.00;;;2.05;82.82
61434;BME280;47300;46.192;9.000;2023-01-26T07:03:41;98168.44;;;2.06;83.37
61434;BME280;47300;46.192;9.000;2023-01-26T07:06:06;98165.84;;;2.04;83.46
61434;BME280;47300;46.192;9.000;2023-01-26T07:08:35;98168.63;;;2.12;83.25
61434;BME280;47300;46.192;9.000;2023-01-26T07:11:00;98166.28;;;2.23;83.06
61434;BME280;47300;46.192;9.000;2023-01-26T07:13:25;98170.97;;;2.38;82.84
61434;BME280;47300;46.192;9.000;2023-01-26T07:15:50;98159.97;;;2.46;81.87
61434;BME280;47300;46.192;9.000;2023-01-26T07:18:15;98161.63;;;2.44;80.72
61434;BME280;47300;46.192;9.000;2023-01-26T07:20:41;98161.84;;;2.52;80.41
61434;BME280;47300;46.192;9.000;2023-01-26T07:23:06;98158.34;;;2.52;80.30
61434;BME280;47300;46.192;9.000;2023-01-26T07:25:31;98162.69;;;2.53;80.46
61434;BME280;47300;46.192;9.000;2023-01-26T07:27:57;98162.94;;;2.64;79.99
61434;BME280;47300;46.192;9.000;2023-01-26T07:30:22;98170.38;;;2.48;80.59
61434;BME280;47300;46.192;9.000;2023-01-26T07:32:47;98163.38;;;2.45;81.47
61434;BME280;47300;46.192;9.000;2023-01-26T07:35:13;98163.97;;;2.34;80.92
61434;BME280;47300;46.192;9.000;2023-01-26T07:37:38;98161.50;;;2.38;81.22
61434;BME280;47300;46.192;9.000;2023-01-26T07:40:03;98158.41;;;2.53;80.54
61434;BME280;47300;46.192;9.000;2023-01-26T07:42:29;98160.69;;;2.41;81.36
61434;BME280;47300;46.192;9.000;2023-01-26T07:44:55;98161.59;;;2.43;79.99
61434;BME280;47300;46.192;9.000;2023-01-26T07:47:20;98160.16;;;2.56;79.96
61434;BME280;47300;46.192;9.000;2023-01-26T07:49:45;98159.25;;;2.52;80.43
61434;BME280;47300;46.192;9.000;2023-01-26T07:52:11;98154.91;;;2.51;79.42
61434;BME280;47300;46.192;9.000;2023-01-26T07:54:36;98155.16;;;2.64;79.03
61434;BME280;47300;46.192;9.000;2023-01-26T07:57:02;98152.00;;;2.75;78.77
61434;BME280;47300;46.192;9.000;2023-01-26T07:59:27;98151.06;;;2.73;78.62
61434;BME280;47300;46.192;9.000;2023-01-26T08:01:52;98149.53;;;2.82;78.10
61434;BME280;47300;46.192;9.000;2023-01-26T08:04:17;98153.25;;;2.95;76.63
61434;BME280;47300;46.192;9.000;2023-01-26T08:06:43;98147.41;;;3.03;76.54
61434;BME280;47300;46.192;9.000;2023-01-26T08:09:08;98147.53;;;3.11;76.50
61434;BME280;47300;46.192;9.000;2023-01-26T08:11:33;98147.44;;;3.05;77.14
61434;BME280;47300;46.192;9.000;2023-01-26T08:13:59;98146.16;;;2.86;76.87
61434;BME280;47300;46.192;9.000;2023-01-26T08:16:24;98141.28;;;3.00;74.88
61434;BME280;47300;46.192;9.000;2023-01-26T08:18:49;98146.88;;;2.80;74.80
61434;BME280;47300;46.192;9.000;2023-01-26T08:21:15;98145.19;;;2.81;74.71
61434;BME280;47300;46.192;9.000;2023-01-26T08:23:40;98154.44;;;2.69;74.25
61434;BME280;47300;46.192;9.000;2023-01-26T08:26:07;98155.56;;;2.82;74.72
61434;BME280;47300;46.192;9.000;2023-01-26T08:28:32;98150.50;;;2.87;73.37
61434;BME280;47300;46.192;9.000;2023-01-26T08:31:02;98155.97;;;3.01;72.00
61434;BME280;47300;46.192;9.000;2023-01-26T08:33:27;98150.06;;;3.08;70.20
61434;BME280;47300;46.192;9.000;2023-01-26T08:35:59;98159.66;;;3.12;70.72
61434;BME280;47300;46.192;9.000;2023-01-26T08:38:24;98152.22;;;3.28;69.79
61434;BME280;47300;46.192;9.000;2023-01-26T08:40:52;98156.81;;;3.41;69.14
61434;BME280;47300;46.192;9.000;2023-01-26T08:43:18;98149.19;;;3.49;67.47
61434;BME280;47300;46.192;9.000;2023-01-26T08:45:45;98150.31;;;3.64;67.08
61434;BME280;47300;46.192;9.000;2023-01-26T08:48:11;98146.66;;;3.52;68.20
61434;BME280;47300;46.192;9.000;2023-01-26T08:50:36;98150.34;;;3.65;69.62
61434;BME280;47300;46.192;9.000;2023-01-26T08:53:01;98148.41;;;3.53;69.54
61434;BME280;47300;46.192;9.000;2023-01-26T08:55:26;98144.28;;;3.65;68.53
61434;BME280;47300;46.192;9.000;2023-01-26T08:57:52;98145.16;;;3.65;68.23
61434;BME280;47300;46.192;9.000;2023-01-26T09:00:19;98144.13;;;3.57;69.16
61434;BME280;47300;46.192;9.000;2023-01-26T09:02:44;98146.44;;;3.87;68.53
61434;BME280;47300;46.192;9.000;2023-01-26T09:05:09;98142.94;;;3.85;68.27
61434;BME280;47300;46.192;9.000;2023-01-26T09:07:35;98145.44;;;3.81;68.75
61434;BME280;47300;46.192;9.000;2023-01-26T09:10:00;98135.03;;;3.81;69.27
61434;BME280;47300;46.192;9.000;2023-01-26T09:12:25;98132.78;;;3.99;68.01
61434;BME280;47300;46.192;9.000;2023-01-26T09:14:50;98128.63;;;4.11;66.99
61434;BME280;47300;46.192;9.000;2023-01-26T09:17:16;98131.91;;;3.99;66.73
61434;BME280;47300;46.192;9.000;2023-01-26T09:19:41;98125.34;;;4.21;65.70
61434;BME280;47300;46.192;9.000;2023-01-26T09:22:06;98128.16;;;4.35;66.16
61434;BME280;47300;46.192;9.000;2023-01-26T09:24:31;98126.63;;;4.48;64.82
61434;BME280;47300;46.192;9.000;2023-01-26T09:26:56;98121.75;;;4.71;63.29
61434;BME280;47300;46.192;9.000;2023-01-26T09:29:22;98123.88;;;5.02;61.21
61434;BME280;47300;46.192;9.000;2023-01-26T09:31:47;98121.19;;;4.92;61.44
61434;BME280;47300;46.192;9.000;2023-01-26T09:34:12;98127.41;;;5.07;60.88
61434;BME280;47300;46.192;9.000;2023-01-26T09:36:37;98128.94;;;4.91;60.53
61434;BME280;47300;46.192;9.000;2023-01-26T09:39:02;98126.19;;;4.77;61.15
61434;BME280;47300;46.192;9.000;2023-01-26T09:44:15;98128.53;;;5.25;60.69
61434;BME280;47300;46.192;9.000;2023-01-26T09:49:43;98117.53;;;4.78;60.35
61434;BME280;47300;46.192;9.000;2023-01-26T09:52:22;98123.69;;;4.86;58.59
61434;BME280;47300;46.192;9.000;2023-01-26T09:54:51;98122.28;;;5.12;58.13
61434;BME280;47300;46.192;9.000;2023-01-26T09:57:18;98117.41;;;5.41;56.84
61434;BME280;47300;46.192;9.000;2023-01-26T10:02:21;98117.59;;;6.49;52.81
61434;BME280;47300;46.192;9.000;2023-01-26T10:04:48;98114.53;;;6.00;54.95
61434;BME280;47300;46.192;9.000;2023-01-26T10:07:15;98105.25;;;5.40;54.14
61434;BME280;47300;46.192;9.000;2023-01-26T10:09:42;98102.69;;;4.72;57.63
61434;BME280;47300;46.192;9.000;2023-01-26T10:12:15;98098.63;;;4.91;57.90
61434;BME280;47300;46.192;9.000;2023-01-26T10:14:49;98096.91;;;4.93;58.25
61434;BME280;47300;46.192;9.000;2023-01-26T10:17:17;98092.41;;;5.54;56.93
61434;BME280;47300;46.192;9.000;2023-01-26T10:19:44;98093.25;;;5.53;55.93
61434;BME280;47300;46.192;9.000;2023-01-26T10:22:54;98087.75;;;5.25;55.80
61434;BME280;47300;46.192;9.000;2023-01-26T10:25:00;98083.53;;;5.33;56.21
61434;BME280;47300;46.192;9.000;2023-01-26T10:27:26;98084.56;;;5.49;55.38
61434;BME280;47300;46.192;9.000;2023-01-26T10:29:51;98084.34;;;5.31;56.25
61434;BME280;47300;46.192;9.000;2023-01-26T10:32:17;98082.47;;;5.17;56.78
61434;BME280;47300;46.192;9.000;2023-01-26T10:34:43;98082.56;;;5.27;57.12
61434;BME280;47300;46.192;9.000;2023-01-26T10:37:27;98076.25;;;5.89;55.58
61434;BME280;47300;46.192;9.000;2023-01-26T10:39:57;98074.47;;;5.85;53.72
61434;BME280;47300;46.192;9.000;2023-01-26T10:42:24;98060.13;;;6.35;54.54
61434;BME280;47300;46.192;9.000;2023-01-26T10:44:51;98060.34;;;6.80;51.63
61434;BME280;47300;46.192;9.000;2023-01-26T10:47:17;98055.19;;;6.91;50.82
61434;BME280;47300;46.192;9.000;2023-01-26T10:49:43;98052.63;;;7.02;50.69
61434;BME280;47300;46.192;9.000;2023-01-26T10:52:19;98050.88;;;6.98;50.43
61434;BME280;47300;46.192;9.000;2023-01-26T10:54:46;98053.59;;;7.26;50.70
61434;BME280;47300;46.192;9.000;2023-01-26T10:57:27;98043.16;;;7.34;50.51
61434;BME280;47300;46.192;9.000;2023-01-26T10:59:56;98038.00;;;7.96;48.52
61434;BME280;47300;46.192;9.000;2023-01-26T11:02:27;98038.00;;;8.05;48.07
61434;BME280;47300;46.192;9.000;2023-01-26T11:07:36;98019.66;;;8.47;47.56
61434;BME280;47300;46.192;9.000;2023-01-26T11:10:22;98014.34;;;8.81;47.60
61434;BME280;47300;46.192;9.000;2023-01-26T11:12:48;98003.78;;;9.02;46.45
61434;BME280;47300;46.192;9.000;2023-01-26T11:15:20;98005.50;;;9.04;46.41
61434;BME280;47300;46.192;9.000;2023-01-26T11:20:19;97995.66;;;9.44;46.68
61434;BME280;47300;46.192;9.000;2023-01-26T11:22:57;97997.50;;;9.34;46.14
61434;BME280;47300;46.192;9.000;2023-01-26T11:28:37;97985.34;;;9.22;47.37
61434;BME280;47300;46.192;9.000;2023-01-26T11:39:21;97966.19;;;9.12;47.00
61434;BME280;47300;46.192;9.000;2023-01-26T12:00:59;97926.13;;;9.01;46.52
61434;BME280;47300;46.192;9.000;2023-01-26T12:06:04;97911.31;;;8.95;46.73
61434;BME280;47300;46.192;9.000;2023-01-26T12:08:35;97904.31;;;9.00;46.97
61434;BME280;47300;46.192;9.000;2023-01-26T12:11:04;97906.72;;;9.31;46.04
61434;BME280;47300;46.192;9.000;2023-01-26T12:13:50;97897.13;;;9.30;45.46
61434;BME280;47300;46.192;9.000;2023-01-26T12:19:07;97894.44;;;9.38;45.47
61434;BME280;47300;46.192;9.000;2023-01-26T12:21:36;97888.25;;;9.44;45.78
61434;BME280;47300;46.192;9.000;2023-01-26T12:24:02;97880.38;;;9.48;45.67
61434;BME280;47300;46.192;9.000;2023-01-26T12:26:32;97872.66;;;9.33;46.31
61434;BME280;47300;46.192;9.000;2023-01-26T12:29:02;97871.47;;;9.66;45.68
61434;BME280;47300;46.192;9.000;2023-01-26T12:31:47;97863.31;;;9.97;45.09
61434;BME280;47300;46.192;9.000;2023-01-26T12:34:14;97865.91;;;9.99;44.33
61434;BME280;47300;46.192;9.000;2023-01-26T12:37:29;97861.53;;;9.98;44.57
61434;BME280;47300;46.192;9.000;2023-01-26T12:44:32;97845.38;;;10.35;42.97
61434;BME280;47300;46.192;9.000;2023-01-26T12:47:03;97835.56;;;10.53;42.72
61434;BME280;47300;46.192;9.000;2023-01-26T12:49:42;97832.41;;;10.23;42.85
61434;BME280;47300;46.192;9.000;2023-01-26T12:52:17;97830.06;;;9.99;44.05
61434;BME280;47300;46.192;9.000;2023-01-26T12:57:14;97818.38;;;10.28;43.71
61434;BME280;47300;46.192;9.000;2023-01-26T12:59:41;97817.94;;;10.60;43.03
61434;BME280;47300;46.192;9.000;2023-01-26T13:04:47;97816.97;;;9.98;43.43
61434;BME280;47300;46.192;9.000;2023-01-26T13:12:45;97797.69;;;10.02;43.84
61434;BME280;47300;46.192;9.000;2023-01-26T13:15:13;97799.28;;;10.14;43.79
61434;BME280;47300;46.192;9.000;2023-01-26T13:20:23;97785.41;;;10.07;43.57
61434;BME280;47300;46.192;9.000;2023-01-26T13:22:48;97781.69;;;10.22;43.36
61434;BME280;47300;46.192;9.000;2023-01-26T13:25:18;97774.00;;;10.10;43.53
61434;BME280;47300;46.192;9.000;2023-01-26T13:27:56;97775.84;;;10.02;43.07
61434;BME280;47300;46.192;9.000;2023-01-26T13:35:13;97767.50;;;10.39;42.74
61434;BME280;47300;46.192;9.000;2023-01-26T13:37:52;97755.97;;;10.52;42.60
61434;BME280;47300;46.192;9.000;2023-01-26T13:45:24;97760.25;;;10.58;42.03
61434;BME280;47300;46.192;9.000;2023-01-26T13:47:51;97741.09;;;10.51;42.99
61434;BME280;47300;46.192;9.000;2023-01-26T13:50:21;97747.22;;;10.52;42.80
61434;BME280;47300;46.192;9.000;2023-01-26T13:52:47;97743.69;;;10.54;42.86
61434;BME280;47300;46.192;9.000;2023-01-26T13:55:18;97745.47;;;10.52;43.20
61434;BME280;47300;46.192;9.000;2023-01-26T13:57:46;97749.06;;;10.45;42.34
61434;BME280;47300;46.192;9.000;2023-01-26T14:00:13;97750.84;;;10.43;43.14
61434;BME280;47300;46.192;9.000;2023-01-26T14:02:38;97752.63;;;10.41;42.80
61434;BME280;47300;46.192;9.000;2023-01-26T14:05:04;97752.41;;;10.56;43.16
61434;BME280;47300;46.192;9.000;2023-01-26T14:09:54;97749.16;;;10.37;43.47
61434;BME280;47300;46.192;9.000;2023-01-26T14:12:22;97749.31;;;10.26;43.98
61434;BME280;47300;46.192;9.000;2023-01-26T14:14:50;97744.63;;;10.52;43.80
61434;BME280;47300;46.192;9.000;2023-01-26T14:17:30;97742.00;;;10.50;42.77
61434;BME280;47300;46.192;9.000;2023-01-26T14:19:56;97738.59;;;10.45;43.06
61434;BME280;47300;46.192;9.000;2023-01-26T14:22:22;97738.53;;;10.50;43.33
61434;BME280;47300;46.192;9.000;2023-01-26T14:24:48;97742.72;;;10.60;44.00
61434;BME280;47300;46.192;9.000;2023-01-26T14:29:51;97740.63;;;10.21;43.86
61434;BME280;47300;46.192;9.000;2023-01-26T14:32:16;97738.84;;;10.26;44.19
61434;BME280;47300;46.192;9.000;2023-01-26T14:34:51;97738.97;;;10.16;43.99
61434;BME280;47300;46.192;9.000;2023-01-26T14:37:17;97739.88;;;10.14;44.62
61434;BME280;47300;46.192;9.000;2023-01-26T14:39:43;97734.34;;;10.33;44.90
61434;BME280;47300;46.192;9.000;2023-01-26T14:42:12;97736.25;;;10.23;45.22
61434;BME280;47300;46.192;9.000;2023-01-26T14:44:38;97734.34;;;10.33;44.66